Time;durP1;ratioP1;P1;durP2;ratioP2;P2;SDS_P1;SDS_P2;PMS_P1;PMS_P2;Temp;Humidity;BMP_temperature;BMP_pressure;BME280_temperature;BME280_humidity;BME280_pressure;Samples;Min_cycle;Max_cycle;Signal;HPM_P1;HPM_P2
2022/12/24 00:02:04;;;;;;;1.52;1.30;;;19.10;54.50;;;;;;6268742;28;20023;-75
2022/12/24 00:05:05;;;;;;;2.65;1.50;;;19.10;54.60;;;;;;6258826;28;20407;-76
2022/12/24 00:08:06;;;;;;;2.90;1.35;;;19.10;54.50;;;;;;6243950;28;20034;-76
2022/12/24 00:11:06;;;;;;;1.73;1.40;;;19.10;54.50;;;;;;6250655;28;20514;-75
2022/12/24 00:14:07;;;;;;;1.98;1.20;;;19.10;54.60;;;;;;6243958;28;20064;-75
2022/12/24 00:17:08;;;;;;;2.13;1.52;;;19.10;54.60;;;;;;6266352;28;20037;-76
2022/12/24 00:20:09;;;;;;;1.80;1.33;;;19.10;54.60;;;;;;6258145;28;20529;-75
2022/12/24 00:23:09;;;;;;;1.77;1.33;;;19.10;54.50;;;;;;6243776;28;20483;-75
2022/12/24 00:26:11;;;;;;;1.67;1.33;;;19.00;54.50;;;;;;6258668;28;20065;-76
2022/12/24 00:29:12;;;;;;;2.13;1.27;;;19.10;55.20;;;;;;6266614;28;20033;-75
2022/12/24 00:32:12;;;;;;;1.50;1.20;;;19.10;54.60;;;;;;6244263;28;20090;-75
2022/12/24 00:35:13;;;;;;;1.80;1.40;;;19.10;54.60;;;;;;6249541;28;20337;-75
2022/12/24 00:38:13;;;;;;;2.60;1.33;;;19.10;54.60;;;;;;6268316;28;20033;-76
2022/12/24 00:41:23;;;;;;;2.15;1.38;;;19.10;54.50;;;;;;6252974;28;20029;-76
2022/12/24 00:44:24;;;;;;;2.20;1.35;;;19.10;54.50;;;;;;6260796;28;20036;-74
2022/12/24 00:47:25;;;;;;;1.48;1.02;;;19.10;54.60;;;;;;6242977;28;20041;-75
2022/12/24 00:50:25;;;;;;;2.15;1.30;;;19.10;54.60;;;;;;6248769;28;20522;-75
2022/12/24 00:53:26;;;;;;;1.58;1.20;;;19.10;54.60;;;;;;6267699;28;20025;-76
2022/12/24 00:56:26;;;;;;;1.95;1.25;;;19.10;54.60;;;;;;6253938;28;20065;-75
2022/12/24 00:59:27;;;;;;;1.52;1.10;;;19.10;54.60;;;;;;6242617;28;20404;-74
2022/12/24 01:02:27;;;;;;;1.33;1.13;;;19.10;54.60;;;;;;6262609;28;20024;-75
2022/12/24 01:05:28;;;;;;;1.50;1.02;;;19.10;54.60;;;;;;6263002;28;20415;-75
2022/12/24 01:08:29;;;;;;;1.38;1.20;;;19.10;54.60;;;;;;6242812;28;20065;-75
2022/12/24 01:11:29;;;;;;;2.22;1.20;;;19.10;54.60;;;;;;6254626;28;20017;-75
2022/12/24 01:14:30;;;;;;;2.40;1.10;;;19.10;54.60;;;;;;6267005;28;20025;-75
2022/12/24 01:17:32;;;;;;;2.08;1.27;;;19.10;54.60;;;;;;6247773;28;20255;-75
2022/12/24 01:20:33;;;;;;;1.85;1.27;;;19.10;54.60;;;;;;6243655;28;20017;-75
2022/12/24 01:23:34;;;;;;;1.30;1.05;;;19.10;54.60;;;;;;6265483;28;20021;-75
2022/12/24 01:26:34;;;;;;;1.58;1.20;;;19.10;54.60;;;;;;6254562;28;20113;-75
2022/12/24 01:29:35;;;;;;;3.05;1.35;;;19.10;54.60;;;;;;6242337;28;20415;-75
2022/12/24 01:32:35;;;;;;;2.00;1.30;;;19.10;54.60;;;;;;6260847;28;20021;-75
2022/12/24 01:35:41;;;;;;;1.73;1.20;;;19.10;54.60;;;;;;6265539;28;20116;-76
2022/12/24 01:38:41;;;;;;;;;;;19.10;54.60;;;;;;6243025;28;20053;-75
2022/12/24 01:45:41;;;;;;;1.63;1.20;;;19.10;54.60;;;;;;6248530;28;20033;-75
2022/12/24 01:48:45;;;;;;;1.05;0.90;;;19.10;54.60;;;;;;6222070;28;20018;-75
2022/12/24 01:51:51;;;;;;;1.77;1.00;;;19.10;54.60;;;;;;6239756;28;20056;-75
2022/12/24 01:54:57;;;;;;;1.38;1.23;;;19.10;54.60;;;;;;6271475;28;20028;-76
2022/12/24 01:57:59;;;;;;;1.30;0.90;;;19.10;54.60;;;;;;6252032;28;20103;-75
2022/12/24 02:01:00;;;;;;;2.08;1.20;;;19.10;54.60;;;;;;6247840;28;20372;-75
2022/12/24 02:04:10;;;;;;;1.52;1.30;;;19.10;54.60;;;;;;6271528;28;20309;-75
2022/12/24 02:07:11;;;;;;;1.65;1.20;;;19.10;54.60;;;;;;6261503;28;20021;-75
2022/12/24 02:10:12;;;;;;;1.55;1.10;;;19.10;54.60;;;;;;6244178;28;20684;-75
2022/12/24 02:13:19;;;;;;;1.25;0.90;;;19.10;54.60;;;;;;6264498;28;20025;-75
2022/12/24 02:16:38;;;;;;;0.95;0.75;;;19.10;54.60;;;;;;6269844;28;20037;-75
2022/12/24 02:20:00;;;;;;;1.75;1.02;;;19.10;54.60;;;;;;6246423;28;20353;-75
2022/12/24 02:23:32;;;;;;;1.08;0.90;;;19.10;54.60;;;;;;6258185;28;20033;-75
2022/12/24 02:27:00;;;;;;;1.23;1.00;;;19.10;54.60;;;;;;6246426;28;20021;-76
2022/12/24 02:30:13;;;;;;;0.80;0.70;;;19.10;54.60;;;;;;6245674;28;20021;-75
2022/12/24 02:33:44;;;;;;;1.05;0.75;;;19.10;54.60;;;;;;6256736;28;20097;-75
2022/12/24 02:37:03;;;;;;;1.35;1.00;;;19.10;54.60;;;;;;6268344;28;20033;-75
2022/12/24 02:40:18;;;;;;;1.75;0.90;;;19.10;54.60;;;;;;6245391;28;20021;-75
2022/12/24 02:43:23;;;;;;;1.58;1.00;;;19.10;55.30;;;;;;6251062;28;20037;-76
2022/12/24 02:46:29;;;;;;;3.03;1.33;;;19.10;54.60;;;;;;6245285;28;20406;-76
2022/12/24 02:49:29;;;;;;;1.10;0.95;;;19.10;54.60;;;;;;6268838;28;20071;-75
2022/12/24 02:52:42;;;;;;;1.02;0.80;;;19.10;54.60;;;;;;6263613;28;20403;-75
2022/12/24 02:56:23;;;;;;;1.42;1.05;;;19.10;54.60;;;;;;6245037;28;20036;-76
2022/12/24 02:59:50;;;;;;;0.85;0.73;;;19.10;54.60;;;;;;6266183;28;20136;-74
2022/12/24 03:03:46;;;;;;;1.00;0.80;;;19.10;54.60;;;;;;6261946;28;20129;-75
2022/12/24 03:07:03;;;;;;;1.00;0.90;;;19.10;54.60;;;;;;6170426;28;20489;-75
2022/12/24 03:10:22;;;;;;;0.82;0.80;;;19.10;54.60;;;;;;6221989;28;20037;-75
2022/12/24 03:13:25;;;;;;;0.80;0.70;;;19.10;54.60;;;;;;6255754;28;20383;-74
2022/12/24 03:16:27;;;;;;;1.90;0.90;;;19.10;54.60;;;;;;6268261;28;20064;-75
2022/12/24 03:19:27;;;;;;;0.77;0.70;;;19.10;54.70;;;;;;6250840;28;20034;-75
2022/12/24 03:22:31;;;;;;;0.80;0.70;;;19.10;54.60;;;;;;6247113;28;20021;-75
2022/12/24 03:25:33;;;;;;;0.80;0.73;;;19.10;54.60;;;;;;6265774;28;20025;-75
2022/12/24 03:28:36;;;;;;;1.10;0.88;;;19.10;54.60;;;;;;6259713;28;20131;-75
2022/12/24 03:31:47;;;;;;;0.80;0.75;;;19.10;54.60;;;;;;6244443;28;20030;-75
2022/12/24 03:34:48;;;;;;;0.90;0.63;;;19.10;54.60;;;;;;6264449;28;20029;-76
2022/12/24 03:37:48;;;;;;;1.10;0.90;;;19.10;54.70;;;;;;6266220;28;20581;-76
2022/12/24 03:40:49;;;;;;;1.95;1.00;;;19.10;54.60;;;;;;6244514;28;20040;-75
2022/12/24 03:43:50;;;;;;;1.45;0.80;;;19.10;54.60;;;;;;6247098;28;20026;-75
2022/12/24 03:46:50;;;;;;;1.23;0.90;;;19.10;54.60;;;;;;6244494;28;20272;-75
2022/12/24 03:49:51;;;;;;;1.17;0.80;;;19.10;54.60;;;;;;6262303;28;20083;-76
2022/12/24 03:52:52;;;;;;;0.88;0.70;;;19.10;54.60;;;;;;6265460;28;20028;-75
2022/12/24 03:55:53;;;;;;;0.90;0.80;;;19.10;54.60;;;;;;6243843;28;20037;-75
2022/12/24 03:58:54;;;;;;;1.33;0.55;;;19.10;54.60;;;;;;6252754;28;20473;-75
2022/12/24 04:01:54;;;;;;;1.17;0.88;;;19.10;54.60;;;;;;6268588;28;20025;-75
2022/12/24 04:04:55;;;;;;;1.27;1.02;;;19.10;54.60;;;;;;6247664;28;20108;-75
2022/12/24 04:07:55;;;;;;;1.27;0.77;;;19.10;54.60;;;;;;6243534;28;20384;-76
2022/12/24 04:10:56;;;;;;;1.23;0.88;;;19.10;54.70;;;;;;6259055;28;20131;-75
2022/12/24 04:13:57;;;;;;;1.27;0.98;;;19.10;54.60;;;;;;6251025;28;20029;-75
2022/12/24 04:16:58;;;;;;;1.35;0.90;;;19.10;54.60;;;;;;6266424;28;20044;-75
2022/12/24 04:19:58;;;;;;;1.10;0.90;;;19.10;54.60;;;;;;6252938;28;20111;-75
2022/12/24 04:22:59;;;;;;;0.85;0.73;;;19.10;54.70;;;;;;6243505;28;20029;-75
2022/12/24 04:26:01;;;;;;;0.90;0.70;;;19.10;54.70;;;;;;6265593;28;20467;-75
2022/12/24 04:29:02;;;;;;;1.10;0.82;;;19.10;54.60;;;;;;6262211;28;20021;-75
2022/12/24 04:32:03;;;;;;;1.02;0.90;;;19.10;54.60;;;;;;6239708;28;20030;-76
2022/12/24 04:35:04;;;;;;;0.80;0.60;;;19.10;54.60;;;;;;6256814;28;20059;-76
2022/12/24 04:38:05;;;;;;;1.42;0.80;;;19.10;54.60;;;;;;6268141;28;20124;-76
2022/12/24 04:41:14;;;;;;;1.73;1.10;;;19.10;54.60;;;;;;6246497;28;20029;-75
2022/12/24 04:44:14;;;;;;;1.38;0.85;;;19.10;54.70;;;;;;6254368;28;20444;-75
2022/12/24 04:47:15;;;;;;;1.27;0.85;;;19.10;54.60;;;;;;6240889;28;20026;-74
2022/12/24 04:50:15;;;;;;;0.93;0.68;;;19.10;54.60;;;;;;6256071;28;20049;-75
2022/12/24 04:53:16;;;;;;;1.30;0.90;;;19.10;54.60;;;;;;6267419;28;20091;-74
2022/12/24 04:56:20;;;;;;;1.00;0.80;;;19.10;54.60;;;;;;6247065;28;20116;-75
2022/12/24 05:03:18;;;;;;;1.65;0.80;;;19.10;54.70;;;;;;6267879;28;20025;-74
2022/12/24 05:06:21;;;;;;;1.40;0.85;;;19.10;54.60;;;;;;6247494;28;20099;-76
2022/12/24 05:09:22;;;;;;;1.17;0.70;;;19.10;54.60;;;;;;6245469;28;20044;-75
2022/12/24 05:12:22;;;;;;;1.30;0.95;;;19.10;54.70;;;;;;6246643;28;20468;-75
2022/12/24 05:15:24;;;;;;;1.25;1.08;;;19.10;54.60;;;;;;6253855;28;20029;-75
2022/12/24 05:18:24;;;;;;;1.45;0.80;;;19.10;54.70;;;;;;6271516;28;20029;-76
2022/12/24 05:21:25;;;;;;;1.50;0.90;;;19.10;54.60;;;;;;6254605;28;20021;-76
2022/12/24 05:27:45;;;;;;;1.95;0.85;;;19.10;54.60;;;;;;6272701;28;20092;-76
2022/12/24 05:30:46;;;;;;;1.20;0.80;;;19.10;54.60;;;;;;6260107;28;20034;-75
2022/12/24 05:33:47;;;;;;;1.27;1.00;;;19.10;54.70;;;;;;6247781;28;20553;-76
2022/12/24 05:36:47;;;;;;;1.17;0.85;;;19.10;54.70;;;;;;6266159;28;20087;-75
2022/12/24 05:39:48;;;;;;;1.13;0.68;;;19.10;54.60;;;;;;6268169;28;20428;-75
2022/12/24 05:42:49;;;;;;;1.48;0.90;;;19.10;54.60;;;;;;6252331;28;20025;-75
2022/12/24 05:45:49;;;;;;;0.85;0.70;;;19.10;54.60;;;;;;6261792;28;20021;-77
2022/12/24 05:48:51;;;;;;;1.23;0.80;;;19.10;54.60;;;;;;6244662;28;20033;-76
2022/12/24 05:51:52;;;;;;;2.20;0.90;;;19.10;54.60;;;;;;6265501;28;20114;-75
2022/12/24 05:54:52;;;;;;;1.42;0.75;;;19.10;54.70;;;;;;6270833;28;20029;-75
2022/12/24 05:57:53;;;;;;;1.23;0.80;;;19.10;54.70;;;;;;6246998;28;20044;-76
2022/12/24 06:00:54;;;;;;;1.33;0.70;;;19.10;54.70;;;;;;6252570;28;20025;-76
2022/12/24 06:03:56;;;;;;;1.05;0.80;;;19.10;54.70;;;;;;6228583;28;20025;-76
2022/12/24 06:06:56;;;;;;;1.40;1.00;;;19.10;54.60;;;;;;6263444;28;20021;-75
2022/12/24 06:09:57;;;;;;;1.48;0.77;;;19.10;54.70;;;;;;6270550;28;20442;-75
2022/12/24 06:12:57;;;;;;;0.82;0.73;;;19.10;54.70;;;;;;6270613;28;20029;-75
2022/12/24 06:16:00;;;;;;;0.90;0.70;;;19.10;54.60;;;;;;6262779;28;20030;-76
2022/12/24 06:19:01;;;;;;;0.70;0.65;;;19.10;54.60;;;;;;6246504;28;20026;-76
2022/12/24 06:22:02;;;;;;;1.23;0.70;;;19.10;54.60;;;;;;6261693;28;20020;-76
2022/12/24 06:25:03;;;;;;;0.88;0.70;;;19.10;54.70;;;;;;6270977;28;20037;-74
2022/12/24 06:28:03;;;;;;;0.90;0.77;;;19.10;54.60;;;;;;6247128;28;20052;-74
2022/12/24 06:31:05;;;;;;;1.05;0.70;;;19.10;54.60;;;;;;6250249;28;20056;-75
2022/12/24 06:34:06;;;;;;;0.88;0.60;;;19.10;54.70;;;;;;6269026;28;20052;-75
2022/12/24 06:37:07;;;;;;;1.95;0.80;;;19.10;54.60;;;;;;6254689;28;20116;-75
2022/12/24 06:40:08;;;;;;;1.05;0.80;;;19.10;54.70;;;;;;6244542;28;20499;-75
2022/12/24 06:43:09;;;;;;;0.63;0.63;;;19.10;54.70;;;;;;6257347;28;20468;-76
2022/12/24 06:46:10;;;;;;;1.70;0.95;;;19.10;54.70;;;;;;6250173;28;20017;-76
2022/12/24 06:49:11;;;;;;;1.30;0.85;;;19.10;54.60;;;;;;6270286;28;20546;-75
2022/12/24 06:52:11;;;;;;;0.73;0.70;;;19.10;54.70;;;;;;6258001;28;20527;-75
2022/12/24 06:55:12;;;;;;;0.52;0.52;;;19.10;54.70;;;;;;6246000;28;20064;-75
2022/12/24 06:58:13;;;;;;;0.70;0.60;;;19.10;54.70;;;;;;6264692;28;20036;-76
2022/12/24 07:01:15;;;;;;;1.10;0.70;;;19.10;54.70;;;;;;6267224;28;20100;-75
2022/12/24 07:04:16;;;;;;;0.60;0.60;;;19.10;54.60;;;;;;6244110;28;20104;-75
2022/12/24 07:07:17;;;;;;;1.13;0.60;;;19.10;54.70;;;;;;6254934;28;20029;-75
2022/12/24 07:10:18;;;;;;;0.80;0.60;;;19.10;54.70;;;;;;6266279;28;20021;-75
2022/12/24 07:13:19;;;;;;;1.05;0.73;;;19.10;54.60;;;;;;6264025;28;20029;-76
2022/12/24 07:16:20;;;;;;;0.95;0.57;;;19.10;54.60;;;;;;6268037;28;20487;-75
2022/12/24 07:19:20;;;;;;;0.80;0.68;;;19.10;54.70;;;;;;6240780;28;20028;-75
2022/12/24 07:22:21;;;;;;;1.00;0.70;;;19.10;54.70;;;;;;6254808;28;20148;-75
2022/12/24 07:25:22;;;;;;;0.73;0.55;;;19.10;54.70;;;;;;6251778;28;20032;-75
2022/12/24 07:28:22;;;;;;;0.70;0.63;;;19.10;54.70;;;;;;6244587;28;20022;-75
2022/12/24 07:31:23;;;;;;;1.02;0.82;;;19.10;54.70;;;;;;6244887;28;20068;-76
2022/12/24 07:34:23;;;;;;;0.82;0.68;;;19.10;54.60;;;;;;6269464;28;20018;-75
2022/12/24 07:37:24;;;;;;;0.82;0.60;;;19.10;54.70;;;;;;6261632;28;20108;-75
2022/12/24 07:40:25;;;;;;;0.88;0.70;;;19.10;54.70;;;;;;6243926;28;20495;-75
2022/12/24 07:43:26;;;;;;;0.88;0.63;;;19.10;54.70;;;;;;6244837;28;20435;-75
2022/12/24 07:46:27;;;;;;;0.80;0.80;;;19.10;54.70;;;;;;6242882;28;20037;-75
2022/12/24 07:49:27;;;;;;;0.95;0.80;;;19.10;54.70;;;;;;6267551;28;20080;-74
2022/12/24 07:52:28;;;;;;;1.25;0.60;;;19.10;54.70;;;;;;6263687;28;20026;-75
2022/12/24 07:55:28;;;;;;;0.50;0.50;;;19.10;54.60;;;;;;6244170;28;20428;-74
2022/12/24 07:58:29;;;;;;;1.05;0.70;;;19.10;54.60;;;;;;6257850;28;20104;-74
2022/12/24 08:01:30;;;;;;;1.05;0.60;;;19.10;55.40;;;;;;6269236;28;20033;-75
2022/12/24 08:04:32;;;;;;;0.60;0.60;;;19.10;54.70;;;;;;6247365;28;20088;-75
2022/12/24 08:07:33;;;;;;;0.85;0.75;;;19.10;54.70;;;;;;6248352;28;20444;-75
2022/12/24 08:10:33;;;;;;;0.75;0.68;;;19.10;54.70;;;;;;6263154;28;20091;-75
2022/12/24 08:13:34;;;;;;;0.77;0.60;;;19.10;54.70;;;;;;6256410;28;20110;-74
2022/12/24 08:16:34;;;;;;;0.68;0.52;;;19.10;54.70;;;;;;6266812;28;20084;-75
2022/12/24 08:19:35;;;;;;;0.93;0.70;;;19.10;54.70;;;;;;6248081;28;20025;-75
2022/12/24 08:22:36;;;;;;;0.68;0.68;;;19.10;54.70;;;;;;6244897;28;20534;-75
2022/12/24 08:25:36;;;;;;;0.77;0.60;;;19.10;54.70;;;;;;6255150;28;20181;-74
2022/12/24 08:28:37;;;;;;;1.00;0.60;;;19.10;54.70;;;;;;6243728;28;20480;-77
2022/12/24 08:31:38;;;;;;;0.73;0.60;;;19.10;54.70;;;;;;6243490;28;20032;-76
2022/12/24 08:34:38;;;;;;;0.77;0.70;;;19.10;54.70;;;;;;6262051;28;20021;-75
2022/12/24 08:37:39;;;;;;;0.50;0.50;;;19.10;54.70;;;;;;6267288;28;20033;-75
2022/12/24 08:40:39;;;;;;;0.57;0.57;;;19.10;54.70;;;;;;6241181;28;20465;-76
2022/12/24 08:43:40;;;;;;;1.17;0.70;;;19.10;54.70;;;;;;6246257;28;20025;-75
2022/12/24 08:46:40;;;;;;;1.80;0.70;;;19.10;54.70;;;;;;6243217;28;20061;-75
2022/12/24 08:49:41;;;;;;;0.75;0.60;;;19.10;54.70;;;;;;6259904;28;20122;-75
2022/12/24 08:52:42;;;;;;;0.85;0.70;;;19.10;54.70;;;;;;6267989;28;20021;-75
2022/12/24 08:55:42;;;;;;;0.90;0.70;;;19.10;54.70;;;;;;6243212;28;20028;-76
2022/12/24 08:58:43;;;;;;;0.82;0.65;;;19.10;54.70;;;;;;6250384;28;20404;-75
2022/12/24 09:01:43;;;;;;;1.10;0.60;;;19.10;54.70;;;;;;6267628;28;20013;-76
2022/12/24 09:04:44;;;;;;;0.85;0.60;;;19.10;54.70;;;;;;6252932;28;20056;-75
2022/12/24 09:07:44;;;;;;;0.85;0.70;;;19.10;54.70;;;;;;6243157;28;20037;-76
2022/12/24 09:10:45;;;;;;;0.52;0.52;;;19.10;54.70;;;;;;6258300;28;20056;-75
2022/12/24 09:13:46;;;;;;;0.90;0.57;;;19.10;54.70;;;;;;6248368;28;20025;-75
2022/12/24 09:16:46;;;;;;;0.70;0.70;;;19.10;54.70;;;;;;6267925;28;20478;-75
2022/12/24 09:19:47;;;;;;;0.60;0.60;;;19.10;54.70;;;;;;6252414;28;20487;-76
2022/12/24 09:22:48;;;;;;;0.82;0.70;;;19.10;54.70;;;;;;6243186;28;20030;-75
2022/12/24 09:25:48;;;;;;;0.60;0.45;;;19.10;54.70;;;;;;6263494;28;20029;-75
2022/12/24 09:28:50;;;;;;;0.93;0.73;;;19.10;54.70;;;;;;6263657;28;20029;-75
2022/12/24 09:31:50;;;;;;;0.52;0.52;;;19.10;54.70;;;;;;6240753;28;20034;-76
2022/12/24 09:34:51;;;;;;;0.80;0.70;;;19.10;54.70;;;;;;6254563;28;20129;-75
2022/12/24 09:38:01;;;;;;;0.57;0.47;;;19.10;54.70;;;;;;6267198;28;20040;-75
2022/12/24 09:41:14;;;;;;;0.98;0.80;;;19.10;54.70;;;;;;6247327;28;20410;-75
2022/12/24 09:44:36;;;;;;;0.80;0.80;;;19.10;54.70;;;;;;6253814;28;20116;-75
2022/12/24 09:47:51;;;;;;;1.10;0.80;;;19.10;54.70;;;;;;6242450;28;20025;-76
2022/12/24 09:50:55;;;;;;;0.90;0.68;;;19.10;54.70;;;;;;6259903;28;20434;-75
2022/12/24 09:54:02;;;;;;;1.17;0.60;;;19.10;54.70;;;;;;6265684;28;20112;-75
2022/12/24 09:57:14;;;;;;;1.27;0.68;;;19.10;54.70;;;;;;6240500;28;20038;-76
2022/12/24 10:00:20;;;;;;;0.95;0.85;;;19.10;54.70;;;;;;6254141;28;20071;-76
2022/12/24 10:03:21;;;;;;;0.60;0.60;;;19.10;54.70;;;;;;6268161;28;20487;-74
2022/12/24 10:06:27;;;;;;;0.98;0.70;;;19.20;54.80;;;;;;6251716;28;20087;-75
2022/12/24 10:09:43;;;;;;;0.50;0.50;;;19.10;54.70;;;;;;6250688;28;20607;-75
2022/12/24 10:13:06;;;;;;;1.27;0.70;;;19.10;54.70;;;;;;6247744;28;20155;-75
2022/12/24 10:16:24;;;;;;;0.73;0.60;;;19.10;54.70;;;;;;6263431;28;20028;-76
2022/12/24 10:19:40;;;;;;;0.55;0.50;;;19.10;54.70;;;;;;6270637;28;20527;-75
2022/12/24 10:22:52;;;;;;;0.85;0.68;;;19.10;54.80;;;;;;6246536;28;20028;-76
2022/12/24 10:26:21;;;;;;;0.93;0.80;;;19.10;54.70;;;;;;6246613;28;20025;-76
2022/12/24 10:29:30;;;;;;;1.00;0.70;;;19.10;54.70;;;;;;6246711;28;20614;-76
2022/12/24 10:32:35;;;;;;;0.63;0.60;;;19.10;54.80;;;;;;6271634;28;20047;-76
2022/12/24 10:35:47;;;;;;;0.60;0.52;;;19.10;54.70;;;;;;6263141;28;20021;-76
2022/12/24 10:38:48;;;;;;;0.73;0.60;;;19.10;54.70;;;;;;6248576;28;20026;-76
2022/12/24 10:41:52;;;;;;;0.70;0.60;;;19.10;54.70;;;;;;6266349;28;20135;-77
2022/12/24 10:45:01;;;;;;;0.63;0.63;;;19.10;54.80;;;;;;6252831;28;20018;-76
2022/12/24 10:48:08;;;;;;;0.60;0.52;;;19.20;54.90;;;;;;6273100;28;20029;-76
2022/12/24 10:51:20;;;;;;;1.02;0.70;;;19.10;54.80;;;;;;6258435;28;20057;-75
2022/12/24 10:54:23;;;;;;;0.90;0.65;;;19.10;54.70;;;;;;6222491;28;20048;-76
2022/12/24 10:57:26;;;;;;;1.38;0.82;;;19.10;54.70;;;;;;6266293;28;20061;-76
2022/12/24 11:00:27;;;;;;;2.30;0.63;;;19.10;54.70;;;;;;6267551;28;20057;-75
2022/12/24 11:03:35;;;;;;;0.57;0.55;;;19.10;54.70;;;;;;6248063;28;20028;-75
2022/12/24 11:07:13;;;;;;;0.85;0.73;;;19.10;54.70;;;;;;6261213;28;20522;-76
2022/12/24 11:10:22;;;;;;;0.90;0.80;;;19.10;54.80;;;;;;6270051;28;20083;-75
2022/12/24 11:13:33;;;;;;;0.82;0.68;;;19.20;54.90;;;;;;6269349;28;20031;-76
2022/12/24 11:16:35;;;;;;;0.80;0.75;;;19.20;54.80;;;;;;6259699;28;20025;-76
2022/12/24 11:19:38;;;;;;;0.70;0.70;;;19.10;54.80;;;;;;6247593;28;20025;-76
2022/12/24 11:22:41;;;;;;;0.73;0.73;;;19.10;54.80;;;;;;6267239;28;20047;-75
2022/12/24 11:25:48;;;;;;;0.40;0.40;;;19.10;54.80;;;;;;6268723;28;20017;-75
2022/12/24 11:29:05;;;;;;;1.02;0.75;;;19.10;54.80;;;;;;6247442;28;20021;-76
2022/12/24 11:32:24;;;;;;;1.42;0.77;;;19.10;54.80;;;;;;6261019;28;20128;-75
2022/12/24 11:35:25;;;;;;;0.82;0.70;;;19.10;54.80;;;;;;6271584;28;20025;-76
2022/12/24 11:38:27;;;;;;;1.63;0.70;;;19.10;54.80;;;;;;6247261;28;20498;-76
2022/12/24 11:41:36;;;;;;;0.60;0.60;;;19.10;54.80;;;;;;6254436;28;20029;-75
2022/12/24 11:44:47;;;;;;;1.02;0.73;;;19.20;54.90;;;;;;6252168;28;20017;-76
2022/12/24 11:47:48;;;;;;;0.68;0.65;;;19.10;54.80;;;;;;6264328;28;20029;-76
2022/12/24 11:50:56;;;;;;;0.63;0.47;;;19.10;54.80;;;;;;6244245;28;20404;-76
2022/12/24 11:54:11;;;;;;;0.52;0.50;;;19.10;54.80;;;;;;6246755;28;20033;-76
2022/12/24 11:57:14;;;;;;;0.68;0.65;;;19.10;54.80;;;;;;6255046;28;20037;-75
2022/12/24 12:00:15;;;;;;;0.80;0.65;;;19.20;54.90;;;;;;6230245;28;20099;-74
2022/12/24 12:03:30;;;;;;;1.42;0.82;;;19.20;54.80;;;;;;6247749;28;20106;-73
2022/12/24 12:06:42;;;;;;;3.10;0.80;;;19.20;54.80;;;;;;6248102;28;20022;-73
2022/12/24 12:09:55;;;;;;;1.55;0.80;;;19.20;54.80;;;;;;6263793;28;20079;-73
2022/12/24 12:13:05;;;;;;;1.13;0.45;;;19.10;54.70;;;;;;6240758;28;20294;-72
2022/12/24 12:16:59;;;;;;;0.73;0.73;;;19.20;54.90;;;;;;6245843;28;20664;-73
2022/12/24 12:20:13;;;;;;;0.77;0.60;;;19.20;54.90;;;;;;6172038;28;20092;-73
2022/12/24 12:23:32;;;;;;;2.97;0.77;;;19.20;54.90;;;;;;6242442;28;20391;-73
2022/12/24 12:26:33;;;;;;;1.48;0.70;;;19.20;54.90;;;;;;6243703;28;20096;-73
2022/12/24 12:29:43;;;;;;;0.93;0.80;;;19.20;54.90;;;;;;6239794;28;20017;-73
2022/12/24 12:33:02;;;;;;;1.08;0.90;;;19.20;54.90;;;;;;6245057;28;20022;-73
2022/12/24 12:36:04;;;;;;;1.10;0.50;;;19.20;55.00;;;;;;6242133;28;20107;-73
2022/12/24 12:39:05;;;;;;;1.67;0.70;;;19.20;55.00;;;;;;6245097;28;20396;-73
2022/12/24 12:42:19;;;;;;;1.00;0.80;;;19.20;54.90;;;;;;6236532;28;20036;-73
2022/12/24 12:45:44;;;;;;;1.15;0.80;;;19.20;54.90;;;;;;6231438;28;20104;-74
2022/12/24 12:48:59;;;;;;;0.98;0.63;;;19.20;55.00;;;;;;6243256;28;20597;-74
2022/12/24 12:52:27;;;;;;;2.72;0.77;;;19.20;54.90;;;;;;6243928;28;20036;-73
2022/12/24 12:55:49;;;;;;;1.13;0.73;;;19.10;54.90;;;;;;6214463;28;20531;-73
2022/12/24 12:58:59;;;;;;;3.75;0.68;;;19.10;54.90;;;;;;6244536;28;20199;-73
2022/12/24 13:02:21;;;;;;;1.10;0.70;;;19.20;55.00;;;;;;6225644;28;20091;-73
2022/12/24 13:05:36;;;;;;;0.90;0.70;;;19.10;54.90;;;;;;6242089;28;20025;-74
2022/12/24 13:09:03;;;;;;;0.80;0.80;;;19.10;54.90;;;;;;6244610;28;20031;-73
2022/12/24 13:12:12;;;;;;;1.08;0.50;;;19.10;54.80;;;;;;6207253;28;20529;-73
2022/12/24 13:15:13;;;;;;;0.88;0.80;;;19.20;55.00;;;;;;6241995;28;20128;-73
2022/12/24 13:18:37;;;;;;;0.80;0.73;;;19.20;55.00;;;;;;6244136;28;20053;-73
2022/12/24 13:21:43;;;;;;;1.08;0.68;;;19.10;54.80;;;;;;6242244;28;20052;-73
2022/12/24 13:24:52;;;;;;;1.45;0.82;;;19.10;54.90;;;;;;6243664;28;20468;-73
2022/12/24 13:27:52;;;;;;;1.10;0.70;;;19.20;55.00;;;;;;6242189;28;20384;-73
2022/12/24 13:31:13;;;;;;;2.05;0.70;;;19.20;55.00;;;;;;6242137;28;20100;-73
2022/12/24 13:34:35;;;;;;;3.03;1.10;;;19.10;54.90;;;;;;6243364;28;20535;-73
2022/12/24 13:37:36;;;;;;;1.08;0.70;;;19.20;54.90;;;;;;6256693;28;20418;-73
2022/12/24 13:40:37;;;;;;;0.90;0.70;;;19.20;55.00;;;;;;6246204;28;20029;-73
2022/12/24 13:44:06;;;;;;;1.33;0.70;;;19.20;55.00;;;;;;6246883;28;20246;-73
2022/12/24 13:47:12;;;;;;;3.55;0.77;;;19.10;54.90;;;;;;6222426;28;20033;-73
2022/12/24 13:50:37;;;;;;;1.38;0.95;;;19.10;54.90;;;;;;6241512;28;20048;-73
2022/12/24 13:53:44;;;;;;;1.45;0.85;;;19.20;55.00;;;;;;6258617;28;20037;-73
2022/12/24 13:56:45;;;;;;;1.63;0.80;;;19.20;55.00;;;;;;6266167;28;20423;-73
2022/12/24 13:59:46;;;;;;;1.15;0.70;;;19.10;54.90;;;;;;6253336;28;20084;-73
2022/12/24 14:02:58;;;;;;;1.13;0.70;;;19.20;55.00;;;;;;6246420;28;20037;-73
2022/12/24 14:06:03;;;;;;;2.17;1.08;;;19.20;55.10;;;;;;6218661;28;20034;-73
2022/12/24 14:09:19;;;;;;;1.10;0.75;;;19.20;55.00;;;;;;6234194;28;20021;-73
2022/12/24 14:12:45;;;;;;;2.15;1.00;;;19.10;54.90;;;;;;6244576;28;20129;-73
2022/12/24 14:15:49;;;;;;;1.48;0.75;;;19.20;55.00;;;;;;6247082;28;20029;-73
2022/12/24 14:19:03;;;;;;;2.33;0.90;;;19.20;55.00;;;;;;6247061;28;20025;-73
2022/12/24 14:22:19;;;;;;;1.25;0.80;;;19.20;55.00;;;;;;6244532;28;20025;-73
2022/12/24 14:25:23;;;;;;;1.52;0.80;;;19.20;55.00;;;;;;6245439;28;20022;-73
2022/12/24 14:28:40;;;;;;;1.42;0.68;;;19.20;55.00;;;;;;6243428;28;20044;-73
2022/12/24 14:31:55;;;;;;;1.50;0.80;;;19.10;54.90;;;;;;6243844;28;20034;-73
2022/12/24 14:35:14;;;;;;;0.65;0.65;;;19.10;54.90;;;;;;6245234;28;20109;-73
2022/12/24 14:38:17;;;;;;;1.60;0.88;;;19.20;55.00;;;;;;6240634;28;20033;-73
2022/12/24 14:41:42;;;;;;;1.58;0.90;;;19.20;55.00;;;;;;6225115;28;20037;-73
2022/12/24 14:45:09;;;;;;;0.82;0.75;;;19.10;54.90;;;;;;6254881;28;20438;-73
2022/12/24 14:48:40;;;;;;;1.33;0.82;;;19.20;55.00;;;;;;6217811;28;20636;-73
2022/12/24 14:51:58;;;;;;;1.48;0.85;;;19.20;55.10;;;;;;6207833;28;20045;-75
2022/12/24 14:54:58;;;;;;;1.95;0.80;;;19.20;55.10;;;;;;6211295;28;20029;-74
2022/12/24 14:58:23;;;;;;;1.52;0.90;;;19.20;55.00;;;;;;6219358;28;20037;-74
2022/12/24 15:01:26;;;;;;;1.58;0.95;;;19.20;54.90;;;;;;6240182;28;20021;-75
2022/12/24 15:04:27;;;;;;;1.98;0.75;;;19.20;54.80;;;;;;6241595;28;20025;-75
2022/12/24 15:07:29;;;;;;;1.10;0.90;;;19.20;54.70;;;;;;6244083;28;20491;-74
2022/12/24 15:10:34;;;;;;;1.55;0.93;;;19.20;54.70;;;;;;6243597;28;20087;-75
2022/12/24 15:13:38;;;;;;;1.48;0.90;;;19.20;54.70;;;;;;6243396;28;20021;-76
2022/12/24 15:16:39;;;;;;;2.63;1.17;;;19.20;54.70;;;;;;6243757;28;20044;-74
2022/12/24 15:19:43;;;;;;;1.95;1.02;;;19.20;54.70;;;;;;6238460;28;20052;-74
2022/12/24 15:22:48;;;;;;;1.98;1.10;;;19.20;54.60;;;;;;6243448;28;20029;-74
2022/12/24 15:25:49;;;;;;;1.92;1.23;;;19.20;54.60;;;;;;6244350;28;20053;-74
2022/12/24 15:28:50;;;;;;;2.17;0.95;;;19.20;54.60;;;;;;6243469;28;20231;-75
2022/12/24 15:31:59;;;;;;;2.28;0.93;;;19.20;54.70;;;;;;6243750;28;20017;-75
2022/12/24 15:34:59;;;;;;;2.08;0.95;;;19.20;54.70;;;;;;6242559;28;20026;-74
2022/12/24 15:38:02;;;;;;;1.38;1.05;;;19.20;54.80;;;;;;6241941;28;20087;-75
2022/12/24 15:41:13;;;;;;;1.42;1.02;;;19.20;54.90;;;;;;6242446;28;20384;-75
2022/12/24 15:44:14;;;;;;;0.98;0.85;;;19.20;54.80;;;;;;6252948;28;20013;-75
2022/12/24 15:47:20;;;;;;;1.38;1.10;;;19.30;54.90;;;;;;6221520;28;20026;-75
2022/12/24 15:50:44;;;;;;;1.92;1.15;;;19.20;54.80;;;;;;6230406;28;20602;-76
2022/12/24 15:53:45;;;;;;;2.60;1.15;;;19.20;54.80;;;;;;6242106;28;20029;-74
2022/12/24 15:56:47;;;;;;;9.95;1.90;;;19.20;54.90;;;;;;6247937;28;20053;-73
2022/12/24 15:59:56;;;;;;;4.00;1.55;;;19.30;55.10;;;;;;6242900;28;20061;-73
2022/12/24 16:03:30;;;;;;;4.57;1.10;;;19.40;54.80;;;;;;6246382;28;20095;-73
2022/12/24 16:06:52;;;;;;;5.65;1.20;;;19.30;54.70;;;;;;6218385;28;20039;-73
2022/12/24 16:10:13;;;;;;;2.13;1.10;;;19.40;54.70;;;;;;6242064;28;20510;-73
2022/12/24 16:13:36;;;;;;;2.63;1.42;;;19.30;54.70;;;;;;6217138;28;20034;-73
2022/12/24 16:16:52;;;;;;;2.00;1.20;;;19.30;54.70;;;;;;6213113;28;20032;-72
2022/12/24 16:19:57;;;;;;;2.97;1.17;;;19.30;54.70;;;;;;6217537;28;20030;-73
2022/12/24 16:22:58;;;;;;;2.08;1.10;;;19.30;54.80;;;;;;6241759;28;20148;-72